Mococa, Brazil
Current Conditions -  °F | °C
As of 4:00 AM on Thursday 18 Dec 2014 (Local Time) from SBRP Reporting Station
Clear Clear  
Wind Chill: 73°   Ceiling: Unl
Heat Index: 73°   Visibility: 6mi
Dew Point: 66°   Wind: 3mph
Humidity: 78%   Direction: 330°NNW
Pressure: 29.83"   Gusts: NA
Location:  21.46°S, 47.01°W
Report Text: SBRP 180600Z 33003KT CAVOK 23/19 Q1010
Loading
Personal Weather Stations






























Interactive Weather Map New forecast layout! Learn more

10-Day Weather Forecast

Advertisements
Track Severe Weather on mobile